sensor_id;sensor_type;location;lat;lon;timestamp;temperature;humidity
47382;DHT22;33128;51.580;5.170;2023-12-04T00:02:14;9.80;99.90
47382;DHT22;33128;51.580;5.170;2023-12-04T00:04:48;9.90;99.90
47382;DHT22;33128;51.580;5.170;2023-12-04T00:07:17;9.70;99.90
47382;DHT22;33128;51.580;5.170;2023-12-04T00:09:42;9.70;99.90
47382;DHT22;33128;51.580;5.170;2023-12-04T00:12:11;11.20;99.90
47382;DHT22;33128;51.580;5.170;2023-12-04T00:14:39;9.80;99.90
47382;DHT22;33128;51.580;5.170;2023-12-04T00:17:05;9.80;99.90
47382;DHT22;33128;51.580;5.170;2023-12-04T00:19:30;9.60;99.90
47382;DHT22;33128;51.580;5.170;2023-12-04T00:21:56;9.60;99.90
47382;DHT22;33128;51.580;5.170;2023-12-04T00:24:44;9.70;99.90
47382;DHT22;33128;51.580;5.170;2023-12-04T00:27:10;9.70;99.90
47382;DHT22;33128;51.580;5.170;2023-12-04T00:29:38;9.50;99.90
47382;DHT22;33128;51.580;5.170;2023-12-04T00:32:04;9.50;99.90
47382;DHT22;33128;51.580;5.170;2023-12-04T00:34:48;9.50;99.90
47382;DHT22;33128;51.580;5.170;2023-12-04T00:37:14;9.60;99.90
47382;DHT22;33128;51.580;5.170;2023-12-04T00:39:42;9.70;99.90
47382;DHT22;33128;51.580;5.170;2023-12-04T00:42:08;9.80;99.90
47382;DHT22;33128;51.580;5.170;2023-12-04T00:44:33;10.00;99.90
47382;DHT22;33128;51.580;5.170;2023-12-04T00:46:59;9.70;99.90
47382;DHT22;33128;51.580;5.170;2023-12-04T00:49:25;9.80;99.90
47382;DHT22;33128;51.580;5.170;2023-12-04T00:51:50;9.70;99.90
47382;DHT22;33128;51.580;5.170;2023-12-04T00:54:16;9.70;99.90
47382;DHT22;33128;51.580;5.170;2023-12-04T00:56:42;9.80;99.90
47382;DHT22;33128;51.580;5.170;2023-12-04T00:59:09;9.70;99.90
47382;DHT22;33128;51.580;5.170;2023-12-04T01:01:38;9.70;99.90
47382;DHT22;33128;51.580;5.170;2023-12-04T01:04:04;9.70;99.90
47382;DHT22;33128;51.580;5.170;2023-12-04T01:06:29;9.80;99.90
47382;DHT22;33128;51.580;5.170;2023-12-04T01:08:55;9.60;99.90
47382;DHT22;33128;51.580;5.170;2023-12-04T01:11:22;9.60;99.90
47382;DHT22;33128;51.580;5.170;2023-12-04T01:13:48;9.50;99.90
47382;DHT22;33128;51.580;5.170;2023-12-04T01:16:14;9.60;99.90
47382;DHT22;33128;51.580;5.170;2023-12-04T01:18:41;9.60;99.90
47382;DHT22;33128;51.580;5.170;2023-12-04T01:21:15;9.60;99.90
47382;DHT22;33128;51.580;5.170;2023-12-04T01:23:41;9.40;99.90
47382;DHT22;33128;51.580;5.170;2023-12-04T01:26:06;9.50;99.90
47382;DHT22;33128;51.580;5.170;2023-12-04T01:28:32;9.40;99.90
47382;DHT22;33128;51.580;5.170;2023-12-04T01:30:58;9.40;99.90
47382;DHT22;33128;51.580;5.170;2023-12-04T01:33:26;9.50;99.90
47382;DHT22;33128;51.580;5.170;2023-12-04T01:35:55;9.50;99.90
47382;DHT22;33128;51.580;5.170;2023-12-04T01:38:20;9.50;99.90
47382;DHT22;33128;51.580;5.170;2023-12-04T01:40:49;9.40;99.90
47382;DHT22;33128;51.580;5.170;2023-12-04T01:43:18;9.40;99.90
47382;DHT22;33128;51.580;5.170;2023-12-04T01:45:44;9.30;99.90
47382;DHT22;33128;51.580;5.170;2023-12-04T01:48:11;9.50;99.90
47382;DHT22;33128;51.580;5.170;2023-12-04T01:50:39;9.50;99.90
47382;DHT22;33128;51.580;5.170;2023-12-04T01:53:05;9.50;99.90
47382;DHT22;33128;51.580;5.170;2023-12-04T01:55:33;9.60;99.90
47382;DHT22;33128;51.580;5.170;2023-12-04T01:58:00;9.50;99.90
47382;DHT22;33128;51.580;5.170;2023-12-04T02:00:29;9.50;99.90
47382;DHT22;33128;51.580;5.170;2023-12-04T02:02:56;11.00;99.90
47382;DHT22;33128;51.580;5.170;2023-12-04T02:05:22;9.50;99.90
47382;DHT22;33128;51.580;5.170;2023-12-04T02:07:48;9.90;99.90
47382;DHT22;33128;51.580;5.170;2023-12-04T02:10:14;9.60;99.90
47382;DHT22;33128;51.580;5.170;2023-12-04T02:12:40;9.50;99.90
47382;DHT22;33128;51.580;5.170;2023-12-04T02:15:06;9.50;99.90
47382;DHT22;33128;51.580;5.170;2023-12-04T02:17:32;9.50;99.90
47382;DHT22;33128;51.580;5.170;2023-12-04T02:19:58;9.60;99.90
47382;DHT22;33128;51.580;5.170;2023-12-04T02:22:23;9.50;99.90
47382;DHT22;33128;51.580;5.170;2023-12-04T02:24:49;9.60;99.90
47382;DHT22;33128;51.580;5.170;2023-12-04T02:27:20;9.60;99.90
47382;DHT22;33128;51.580;5.170;2023-12-04T02:29:58;9.50;99.90
47382;DHT22;33128;51.580;5.170;2023-12-04T02:32:24;9.50;99.90
47382;DHT22;33128;51.580;5.170;2023-12-04T02:34:54;9.60;99.90
47382;DHT22;33128;51.580;5.170;2023-12-04T02:37:21;9.60;99.90
47382;DHT22;33128;51.580;5.170;2023-12-04T02:39:48;9.60;99.90
47382;DHT22;33128;51.580;5.170;2023-12-04T02:42:15;9.50;99.90
47382;DHT22;33128;51.580;5.170;2023-12-04T02:44:42;9.60;99.90
47382;DHT22;33128;51.580;5.170;2023-12-04T02:47:08;9.60;99.90
47382;DHT22;33128;51.580;5.170;2023-12-04T02:49:33;9.60;99.90
47382;DHT22;33128;51.580;5.170;2023-12-04T02:51:59;9.50;99.90
47382;DHT22;33128;51.580;5.170;2023-12-04T02:54:25;9.40;99.90
47382;DHT22;33128;51.580;5.170;2023-12-04T02:56:50;9.50;99.90
47382;DHT22;33128;51.580;5.170;2023-12-04T02:59:16;9.50;99.90
47382;DHT22;33128;51.580;5.170;2023-12-04T03:01:41;9.40;99.90
47382;DHT22;33128;51.580;5.170;2023-12-04T03:04:07;10.00;99.90
47382;DHT22;33128;51.580;5.170;2023-12-04T03:06:33;9.60;99.90
47382;DHT22;33128;51.580;5.170;2023-12-04T03:08:59;9.50;99.90
47382;DHT22;33128;51.580;5.170;2023-12-04T03:11:25;9.50;99.90
47382;DHT22;33128;51.580;5.170;2023-12-04T03:13:50;9.50;99.90
47382;DHT22;33128;51.580;5.170;2023-12-04T03:16:17;9.50;99.90
47382;DHT22;33128;51.580;5.170;2023-12-04T03:18:43;9.50;99.90
47382;DHT22;33128;51.580;5.170;2023-12-04T03:21:09;9.40;99.90
47382;DHT22;33128;51.580;5.170;2023-12-04T03:23:35;9.30;99.90
47382;DHT22;33128;51.580;5.170;2023-12-04T03:26:00;9.60;99.90
47382;DHT22;33128;51.580;5.170;2023-12-04T03:28:26;9.60;99.90
47382;DHT22;33128;51.580;5.170;2023-12-04T03:30:51;9.50;99.90
47382;DHT22;33128;51.580;5.170;2023-12-04T03:33:17;9.50;99.90
47382;DHT22;33128;51.580;5.170;2023-12-04T03:35:43;9.50;99.90
47382;DHT22;33128;51.580;5.170;2023-12-04T03:38:09;9.50;99.90
47382;DHT22;33128;51.580;5.170;2023-12-04T03:40:34;9.50;99.90
47382;DHT22;33128;51.580;5.170;2023-12-04T03:43:00;9.50;99.90
47382;DHT22;33128;51.580;5.170;2023-12-04T03:45:25;9.50;99.90
47382;DHT22;33128;51.580;5.170;2023-12-04T03:47:51;9.50;99.90
47382;DHT22;33128;51.580;5.170;2023-12-04T03:50:16;9.50;99.90
47382;DHT22;33128;51.580;5.170;2023-12-04T03:52:42;9.50;99.90
47382;DHT22;33128;51.580;5.170;2023-12-04T03:55:08;9.50;99.90
47382;DHT22;33128;51.580;5.170;2023-12-04T03:57:34;9.50;99.90
47382;DHT22;33128;51.580;5.170;2023-12-04T04:00:00;9.50;99.90
47382;DHT22;33128;51.580;5.170;2023-12-04T04:02:34;9.50;99.90
47382;DHT22;33128;51.580;5.170;2023-12-04T04:05:00;9.50;99.90
47382;DHT22;33128;51.580;5.170;2023-12-04T04:07:26;9.60;99.90
47382;DHT22;33128;51.580;5.170;2023-12-04T04:09:52;9.70;99.90
47382;DHT22;33128;51.580;5.170;2023-12-04T04:12:20;9.60;99.90
47382;DHT22;33128;51.580;5.170;2023-12-04T04:14:45;9.60;99.90
47382;DHT22;33128;51.580;5.170;2023-12-04T04:17:11;9.50;99.90
47382;DHT22;33128;51.580;5.170;2023-12-04T04:19:37;11.00;99.90
47382;DHT22;33128;51.580;5.170;2023-12-04T04:22:02;9.50;99.90
47382;DHT22;33128;51.580;5.170;2023-12-04T04:24:28;9.50;99.90
47382;DHT22;33128;51.580;5.170;2023-12-04T04:26:54;9.40;99.90
47382;DHT22;33128;51.580;5.170;2023-12-04T04:29:19;9.40;99.90
47382;DHT22;33128;51.580;5.170;2023-12-04T04:31:45;9.40;99.90
47382;DHT22;33128;51.580;5.170;2023-12-04T04:34:11;9.40;99.90
47382;DHT22;33128;51.580;5.170;2023-12-04T04:36:36;9.40;99.90
47382;DHT22;33128;51.580;5.170;2023-12-04T04:39:03;9.40;99.90
47382;DHT22;33128;51.580;5.170;2023-12-04T04:41:28;9.40;99.90
47382;DHT22;33128;51.580;5.170;2023-12-04T04:43:54;9.40;99.90
47382;DHT22;33128;51.580;5.170;2023-12-04T04:46:19;9.40;99.90
47382;DHT22;33128;51.580;5.170;2023-12-04T04:48:46;9.40;99.90
47382;DHT22;33128;51.580;5.170;2023-12-04T04:51:11;9.40;99.90
47382;DHT22;33128;51.580;5.170;2023-12-04T04:53:38;9.50;99.90
47382;DHT22;33128;51.580;5.170;2023-12-04T04:56:04;9.50;99.90
47382;DHT22;33128;51.580;5.170;2023-12-04T04:58:30;9.50;99.90
47382;DHT22;33128;51.580;5.170;2023-12-04T05:00:55;9.50;99.90
47382;DHT22;33128;51.580;5.170;2023-12-04T05:03:21;9.50;99.90
47382;DHT22;33128;51.580;5.170;2023-12-04T05:05:47;9.40;99.90
47382;DHT22;33128;51.580;5.170;2023-12-04T05:08:12;9.40;99.90
47382;DHT22;33128;51.580;5.170;2023-12-04T05:10:41;9.50;99.90
47382;DHT22;33128;51.580;5.170;2023-12-04T05:13:07;9.60;99.90
47382;DHT22;33128;51.580;5.170;2023-12-04T05:15:33;9.60;99.90
47382;DHT22;33128;51.580;5.170;2023-12-04T05:17:58;9.50;99.90
47382;DHT22;33128;51.580;5.170;2023-12-04T05:20:24;9.40;99.90
47382;DHT22;33128;51.580;5.170;2023-12-04T05:22:50;9.50;99.90
47382;DHT22;33128;51.580;5.170;2023-12-04T05:25:15;9.40;99.90
47382;DHT22;33128;51.580;5.170;2023-12-04T05:27:41;9.50;99.90
47382;DHT22;33128;51.580;5.170;2023-12-04T05:30:07;9.50;99.90
47382;DHT22;33128;51.580;5.170;2023-12-04T05:32:33;9.50;99.90
47382;DHT22;33128;51.580;5.170;2023-12-04T05:34:58;9.50;99.90
47382;DHT22;33128;51.580;5.170;2023-12-04T05:37:24;9.60;99.90
47382;DHT22;33128;51.580;5.170;2023-12-04T05:39:50;9.60;99.90
47382;DHT22;33128;51.580;5.170;2023-12-04T05:42:15;9.60;99.90
47382;DHT22;33128;51.580;5.170;2023-12-04T05:44:41;9.80;99.90
47382;DHT22;33128;51.580;5.170;2023-12-04T05:47:10;9.40;99.90
47382;DHT22;33128;51.580;5.170;2023-12-04T05:49:35;9.50;99.90
47382;DHT22;33128;51.580;5.170;2023-12-04T05:52:01;9.50;99.90
47382;DHT22;33128;51.580;5.170;2023-12-04T05:54:26;9.50;99.90
47382;DHT22;33128;51.580;5.170;2023-12-04T05:56:52;9.50;99.90
47382;DHT22;33128;51.580;5.170;2023-12-04T05:59:18;9.40;99.90
47382;DHT22;33128;51.580;5.170;2023-12-04T06:01:43;9.40;99.90
47382;DHT22;33128;51.580;5.170;2023-12-04T06:04:09;9.40;99.90
47382;DHT22;33128;51.580;5.170;2023-12-04T06:06:35;9.40;99.90
47382;DHT22;33128;51.580;5.170;2023-12-04T06:09:00;8.60;99.90
47382;DHT22;33128;51.580;5.170;2023-12-04T06:11:26;8.10;99.90
47382;DHT22;33128;51.580;5.170;2023-12-04T06:13:52;7.80;99.90
47382;DHT22;33128;51.580;5.170;2023-12-04T06:16:17;7.90;99.90
47382;DHT22;33128;51.580;5.170;2023-12-04T06:18:43;7.60;99.90
47382;DHT22;33128;51.580;5.170;2023-12-04T06:21:11;7.30;99.90
47382;DHT22;33128;51.580;5.170;2023-12-04T06:23:40;7.40;99.90
47382;DHT22;33128;51.580;5.170;2023-12-04T06:26:06;7.30;99.90
47382;DHT22;33128;51.580;5.170;2023-12-04T06:28:32;7.10;99.90
47382;DHT22;33128;51.580;5.170;2023-12-04T06:30:58;7.00;99.90
47382;DHT22;33128;51.580;5.170;2023-12-04T06:33:27;6.90;99.90
47382;DHT22;33128;51.580;5.170;2023-12-04T06:35:53;7.10;99.90
47382;DHT22;33128;51.580;5.170;2023-12-04T06:38:19;6.90;99.90
47382;DHT22;33128;51.580;5.170;2023-12-04T06:40:49;7.00;99.90
47382;DHT22;33128;51.580;5.170;2023-12-04T06:43:15;7.00;99.90
47382;DHT22;33128;51.580;5.170;2023-12-04T06:45:44;7.20;99.90
47382;DHT22;33128;51.580;5.170;2023-12-04T06:48:13;7.10;99.90
47382;DHT22;33128;51.580;5.170;2023-12-04T06:50:48;7.20;99.90
47382;DHT22;33128;51.580;5.170;2023-12-04T06:53:13;7.50;99.90
47382;DHT22;33128;51.580;5.170;2023-12-04T06:55:39;7.40;99.90
47382;DHT22;33128;51.580;5.170;2023-12-04T06:58:04;7.30;99.90
47382;DHT22;33128;51.580;5.170;2023-12-04T07:00:30;7.30;99.90
47382;DHT22;33128;51.580;5.170;2023-12-04T07:02:58;7.30;99.90
47382;DHT22;33128;51.580;5.170;2023-12-04T07:05:24;7.20;99.90
47382;DHT22;33128;51.580;5.170;2023-12-04T07:07:50;7.20;99.90
47382;DHT22;33128;51.580;5.170;2023-12-04T07:10:18;8.30;99.90
47382;DHT22;33128;51.580;5.170;2023-12-04T07:12:45;6.50;99.90
47382;DHT22;33128;51.580;5.170;2023-12-04T07:15:17;6.70;99.90
47382;DHT22;33128;51.580;5.170;2023-12-04T07:17:42;7.00;99.90
47382;DHT22;33128;51.580;5.170;2023-12-04T07:25:01;8.50;99.90
47382;DHT22;33128;51.580;5.170;2023-12-04T07:27:27;8.80;99.90
47382;DHT22;33128;51.580;5.170;2023-12-04T07:29:53;9.60;99.90
47382;DHT22;33128;51.580;5.170;2023-12-04T07:32:18;10.10;99.90
47382;DHT22;33128;51.580;5.170;2023-12-04T07:34:44;9.70;99.90
47382;DHT22;33128;51.580;5.170;2023-12-04T07:37:10;9.80;99.90
47382;DHT22;33128;51.580;5.170;2023-12-04T07:39:35;10.20;99.90
47382;DHT22;33128;51.580;5.170;2023-12-04T07:42:01;10.30;99.90
47382;DHT22;33128;51.580;5.170;2023-12-04T07:44:27;10.60;99.90
47382;DHT22;33128;51.580;5.170;2023-12-04T07:46:53;10.80;99.90
47382;DHT22;33128;51.580;5.170;2023-12-04T07:49:21;11.50;99.90
47382;DHT22;33128;51.580;5.170;2023-12-04T07:51:47;11.60;99.90
47382;DHT22;33128;51.580;5.170;2023-12-04T07:54:12;11.90;99.90
47382;DHT22;33128;51.580;5.170;2023-12-04T07:56:38;12.20;99.90
47382;DHT22;33128;51.580;5.170;2023-12-04T07:59:04;12.30;99.90
47382;DHT22;33128;51.580;5.170;2023-12-04T08:01:29;12.50;99.80
47382;DHT22;33128;51.580;5.170;2023-12-04T08:06:21;12.80;99.90
47382;DHT22;33128;51.580;5.170;2023-12-04T08:08:47;13.70;99.90
47382;DHT22;33128;51.580;5.170;2023-12-04T08:11:13;14.10;99.70
47382;DHT22;33128;51.580;5.170;2023-12-04T08:13:39;14.00;99.30
47382;DHT22;33128;51.580;5.170;2023-12-04T08:16:05;14.00;99.00
47382;DHT22;33128;51.580;5.170;2023-12-04T08:18:30;13.90;99.10
47382;DHT22;33128;51.580;5.170;2023-12-04T08:20:59;13.90;99.10
47382;DHT22;33128;51.580;5.170;2023-12-04T08:23:25;13.90;99.20
47382;DHT22;33128;51.580;5.170;2023-12-04T08:25:50;13.90;99.10
47382;DHT22;33128;51.580;5.170;2023-12-04T08:28:16;13.90;99.00
47382;DHT22;33128;51.580;5.170;2023-12-04T08:30:44;13.90;99.00
47382;DHT22;33128;51.580;5.170;2023-12-04T08:33:10;14.00;98.90
47382;DHT22;33128;51.580;5.170;2023-12-04T08:35:35;14.00;98.90
47382;DHT22;33128;51.580;5.170;2023-12-04T08:38:01;14.10;98.60
47382;DHT22;33128;51.580;5.170;2023-12-04T08:40:27;14.20;98.40
47382;DHT22;33128;51.580;5.170;2023-12-04T08:42:52;14.30;98.20
47382;DHT22;33128;51.580;5.170;2023-12-04T08:45:18;14.30;98.20
47382;DHT22;33128;51.580;5.170;2023-12-04T08:47:53;14.50;98.10
47382;DHT22;33128;51.580;5.170;2023-12-04T08:50:25;14.50;98.00
47382;DHT22;33128;51.580;5.170;2023-12-04T08:52:51;14.60;97.90
47382;DHT22;33128;51.580;5.170;2023-12-04T08:55:20;14.60;97.70
47382;DHT22;33128;51.580;5.170;2023-12-04T08:57:48;14.60;97.70
47382;DHT22;33128;51.580;5.170;2023-12-04T09:00:14;14.70;97.70
47382;DHT22;33128;51.580;5.170;2023-12-04T09:02:40;14.70;97.60
47382;DHT22;33128;51.580;5.170;2023-12-04T09:05:05;14.70;97.60
47382;DHT22;33128;51.580;5.170;2023-12-04T09:07:31;14.80;97.50
47382;DHT22;33128;51.580;5.170;2023-12-04T09:09:57;14.80;97.50
47382;DHT22;33128;51.580;5.170;2023-12-04T09:12:22;14.80;97.20
47382;DHT22;33128;51.580;5.170;2023-12-04T09:14:48;14.70;97.60
47382;DHT22;33128;51.580;5.170;2023-12-04T09:17:15;14.80;97.40
47382;DHT22;33128;51.580;5.170;2023-12-04T09:19:41;14.90;97.10
47382;DHT22;33128;51.580;5.170;2023-12-04T09:22:07;14.90;97.10
47382;DHT22;33128;51.580;5.170;2023-12-04T09:24:33;15.00;97.10
47382;DHT22;33128;51.580;5.170;2023-12-04T09:26:59;15.10;97.00
47382;DHT22;33128;51.580;5.170;2023-12-04T09:29:25;15.10;97.00
47382;DHT22;33128;51.580;5.170;2023-12-04T09:31:53;15.10;96.80
47382;DHT22;33128;51.580;5.170;2023-12-04T09:34:19;15.10;96.80
47382;DHT22;33128;51.580;5.170;2023-12-04T09:36:46;15.10;96.80
47382;DHT22;33128;51.580;5.170;2023-12-04T09:39:13;15.10;96.80
47382;DHT22;33128;51.580;5.170;2023-12-04T09:41:40;15.20;96.80
47382;DHT22;33128;51.580;5.170;2023-12-04T09:44:07;15.20;96.60
47382;DHT22;33128;51.580;5.170;2023-12-04T09:46:34;15.20;96.60
47382;DHT22;33128;51.580;5.170;2023-12-04T09:49:00;15.20;96.60
47382;DHT22;33128;51.580;5.170;2023-12-04T09:51:27;15.20;96.60
47382;DHT22;33128;51.580;5.170;2023-12-04T09:53:53;15.20;96.50
47382;DHT22;33128;51.580;5.170;2023-12-04T09:56:25;15.20;96.60
47382;DHT22;33128;51.580;5.170;2023-12-04T09:58:59;15.30;96.50
47382;DHT22;33128;51.580;5.170;2023-12-04T10:01:29;15.30;96.50
47382;DHT22;33128;51.580;5.170;2023-12-04T10:03:57;15.30;96.40
47382;DHT22;33128;51.580;5.170;2023-12-04T10:06:26;15.40;96.40
47382;DHT22;33128;51.580;5.170;2023-12-04T10:08:53;15.40;96.30
47382;DHT22;33128;51.580;5.170;2023-12-04T10:11:20;15.40;96.20
47382;DHT22;33128;51.580;5.170;2023-12-04T10:13:48;15.50;96.30
47382;DHT22;33128;51.580;5.170;2023-12-04T10:16:14;15.50;96.20
47382;DHT22;33128;51.580;5.170;2023-12-04T10:18:40;15.40;96.20
47382;DHT22;33128;51.580;5.170;2023-12-04T10:21:06;15.50;96.20
47382;DHT22;33128;51.580;5.170;2023-12-04T10:23:43;15.50;96.10
47382;DHT22;33128;51.580;5.170;2023-12-04T10:26:14;15.60;96.10
47382;DHT22;33128;51.580;5.170;2023-12-04T10:29:02;15.60;96.10
47382;DHT22;33128;51.580;5.170;2023-12-04T10:31:36;15.60;96.00
47382;DHT22;33128;51.580;5.170;2023-12-04T10:34:02;15.70;96.10
47382;DHT22;33128;51.580;5.170;2023-12-04T10:36:30;15.70;96.10
47382;DHT22;33128;51.580;5.170;2023-12-04T10:38:59;15.70;96.20
47382;DHT22;33128;51.580;5.170;2023-12-04T10:41:25;15.70;95.80
47382;DHT22;33128;51.580;5.170;2023-12-04T10:43:56;15.80;95.90
47382;DHT22;33128;51.580;5.170;2023-12-04T10:46:26;15.80;95.70
47382;DHT22;33128;51.580;5.170;2023-12-04T10:48:52;15.80;95.80
47382;DHT22;33128;51.580;5.170;2023-12-04T10:51:19;15.90;95.70
47382;DHT22;33128;51.580;5.170;2023-12-04T10:53:47;15.90;95.70
47382;DHT22;33128;51.580;5.170;2023-12-04T10:56:25;16.00;95.70
47382;DHT22;33128;51.580;5.170;2023-12-04T10:58:51;16.00;93.20
47382;DHT22;33128;51.580;5.170;2023-12-04T11:01:19;15.40;93.00
47382;DHT22;33128;51.580;5.170;2023-12-04T11:03:48;14.80;92.90
47382;DHT22;33128;51.580;5.170;2023-12-04T11:06:16;14.50;93.40
47382;DHT22;33128;51.580;5.170;2023-12-04T11:08:42;14.20;93.70
47382;DHT22;33128;51.580;5.170;2023-12-04T11:11:12;14.10;94.10
47382;DHT22;33128;51.580;5.170;2023-12-04T11:13:41;13.90;93.20
47382;DHT22;33128;51.580;5.170;2023-12-04T11:16:20;13.60;93.60
47382;DHT22;33128;51.580;5.170;2023-12-04T11:21:34;13.00;94.70
47382;DHT22;33128;51.580;5.170;2023-12-04T11:24:02;12.80;95.00
47382;DHT22;33128;51.580;5.170;2023-12-04T11:26:28;12.70;95.30
47382;DHT22;33128;51.580;5.170;2023-12-04T11:29:01;12.60;95.10
47382;DHT22;33128;51.580;5.170;2023-12-04T11:31:27;12.50;95.60
47382;DHT22;33128;51.580;5.170;2023-12-04T11:33:53;12.50;95.50
47382;DHT22;33128;51.580;5.170;2023-12-04T11:36:18;12.40;95.70
47382;DHT22;33128;51.580;5.170;2023-12-04T11:38:45;12.40;96.00
47382;DHT22;33128;51.580;5.170;2023-12-04T11:41:19;12.30;95.80
47382;DHT22;33128;51.580;5.170;2023-12-04T11:43:46;12.30;96.30
47382;DHT22;33128;51.580;5.170;2023-12-04T11:46:22;12.20;96.30
47382;DHT22;33128;51.580;5.170;2023-12-04T11:48:50;12.20;96.40
47382;DHT22;33128;51.580;5.170;2023-12-04T11:51:45;12.20;96.60
47382;DHT22;33128;51.580;5.170;2023-12-04T11:54:17;12.20;96.70
47382;DHT22;33128;51.580;5.170;2023-12-04T11:59:25;12.20;97.00
47382;DHT22;33128;51.580;5.170;2023-12-04T12:01:54;12.20;96.90
47382;DHT22;33128;51.580;5.170;2023-12-04T12:04:21;12.20;97.20
47382;DHT22;33128;51.580;5.170;2023-12-04T12:06:48;12.20;97.00
47382;DHT22;33128;51.580;5.170;2023-12-04T12:09:15;12.20;97.20
47382;DHT22;33128;51.580;5.170;2023-12-04T12:11:40;12.10;97.10
47382;DHT22;33128;51.580;5.170;2023-12-04T12:14:09;12.10;97.30
47382;DHT22;33128;51.580;5.170;2023-12-04T12:16:34;12.10;97.40
47382;DHT22;33128;51.580;5.170;2023-12-04T12:19:01;12.00;97.50
47382;DHT22;33128;51.580;5.170;2023-12-04T12:21:28;12.00;97.50
47382;DHT22;33128;51.580;5.170;2023-12-04T12:23:54;11.90;98.00
47382;DHT22;33128;51.580;5.170;2023-12-04T12:26:20;11.80;98.00
47382;DHT22;33128;51.580;5.170;2023-12-04T12:28:45;11.90;98.00
47382;DHT22;33128;51.580;5.170;2023-12-04T12:31:11;11.80;98.10
47382;DHT22;33128;51.580;5.170;2023-12-04T12:33:36;11.80;98.10
47382;DHT22;33128;51.580;5.170;2023-12-04T12:36:06;11.80;98.20
47382;DHT22;33128;51.580;5.170;2023-12-04T12:38:35;11.80;98.40
47382;DHT22;33128;51.580;5.170;2023-12-04T12:41:01;11.80;98.20
47382;DHT22;33128;51.580;5.170;2023-12-04T12:43:27;11.70;98.60
47382;DHT22;33128;51.580;5.170;2023-12-04T12:45:53;11.70;98.60
47382;DHT22;33128;51.580;5.170;2023-12-04T12:48:19;11.80;98.70
47382;DHT22;33128;51.580;5.170;2023-12-04T12:50:46;11.80;98.70
47382;DHT22;33128;51.580;5.170;2023-12-04T12:53:12;11.80;99.00
47382;DHT22;33128;51.580;5.170;2023-12-04T12:55:41;11.80;98.90
47382;DHT22;33128;51.580;5.170;2023-12-04T12:58:10;11.90;98.80
47382;DHT22;33128;51.580;5.170;2023-12-04T13:00:36;11.90;99.00
47382;DHT22;33128;51.580;5.170;2023-12-04T13:03:04;11.80;99.10
47382;DHT22;33128;51.580;5.170;2023-12-04T13:05:31;11.90;99.40
47382;DHT22;33128;51.580;5.170;2023-12-04T13:07:57;12.00;99.50
47382;DHT22;33128;51.580;5.170;2023-12-04T13:10:23;12.00;99.80
47382;DHT22;33128;51.580;5.170;2023-12-04T13:12:50;12.00;99.90
47382;DHT22;33128;51.580;5.170;2023-12-04T13:15:18;12.30;99.40
47382;DHT22;33128;51.580;5.170;2023-12-04T13:17:44;12.20;99.10
47382;DHT22;33128;51.580;5.170;2023-12-04T13:20:10;12.00;99.40
47382;DHT22;33128;51.580;5.170;2023-12-04T13:22:38;12.00;99.30
47382;DHT22;33128;51.580;5.170;2023-12-04T13:25:05;11.80;99.50
47382;DHT22;33128;51.580;5.170;2023-12-04T13:27:33;11.80;99.80
47382;DHT22;33128;51.580;5.170;2023-12-04T13:29:58;11.70;99.60
47382;DHT22;33128;51.580;5.170;2023-12-04T13:32:24;11.70;99.70
47382;DHT22;33128;51.580;5.170;2023-12-04T13:34:50;11.70;99.70
47382;DHT22;33128;51.580;5.170;2023-12-04T13:37:15;11.60;99.80
47382;DHT22;33128;51.580;5.170;2023-12-04T13:39:44;11.70;99.80
47382;DHT22;33128;51.580;5.170;2023-12-04T13:42:16;11.50;99.90
47382;DHT22;33128;51.580;5.170;2023-12-04T13:45:01;11.60;99.90
47382;DHT22;33128;51.580;5.170;2023-12-04T13:47:27;11.60;99.90
47382;DHT22;33128;51.580;5.170;2023-12-04T13:49:53;11.50;99.90
47382;DHT22;33128;51.580;5.170;2023-12-04T13:52:20;11.60;99.90
47382;DHT22;33128;51.580;5.170;2023-12-04T13:54:48;11.60;99.90
47382;DHT22;33128;51.580;5.170;2023-12-04T13:57:15;11.60;99.90
47382;DHT22;33128;51.580;5.170;2023-12-04T13:59:47;11.50;99.90
47382;DHT22;33128;51.580;5.170;2023-12-04T14:02:13;11.50;99.90
47382;DHT22;33128;51.580;5.170;2023-12-04T14:04:40;11.50;99.90
47382;DHT22;33128;51.580;5.170;2023-12-04T14:07:08;11.50;99.90
47382;DHT22;33128;51.580;5.170;2023-12-04T14:09:34;11.50;99.90
47382;DHT22;33128;51.580;5.170;2023-12-04T14:12:03;11.40;99.90
47382;DHT22;33128;51.580;5.170;2023-12-04T14:14:31;11.50;99.90
47382;DHT22;33128;51.580;5.170;2023-12-04T14:17:01;11.50;99.90
47382;DHT22;33128;51.580;5.170;2023-12-04T14:19:29;11.50;99.90
47382;DHT22;33128;51.580;5.170;2023-12-04T14:21:54;11.50;99.90
47382;DHT22;33128;51.580;5.170;2023-12-04T14:24:20;11.50;99.90
47382;DHT22;33128;51.580;5.170;2023-12-04T14:26:47;11.50;99.90
47382;DHT22;33128;51.580;5.170;2023-12-04T14:29:13;11.50;99.90
47382;DHT22;33128;51.580;5.170;2023-12-04T14:31:39;11.50;99.90
47382;DHT22;33128;51.580;5.170;2023-12-04T14:34:05;11.60;99.90
47382;DHT22;33128;51.580;5.170;2023-12-04T14:36:31;11.60;99.90
47382;DHT22;33128;51.580;5.170;2023-12-04T14:38:58;11.50;99.90
47382;DHT22;33128;51.580;5.170;2023-12-04T14:41:23;11.50;99.90
47382;DHT22;33128;51.580;5.170;2023-12-04T14:43:49;11.50;99.90
47382;DHT22;33128;51.580;5.170;2023-12-04T14:46:14;11.50;99.90
47382;DHT22;33128;51.580;5.170;2023-12-04T14:48:42;11.40;99.90
47382;DHT22;33128;51.580;5.170;2023-12-04T14:51:08;11.30;99.90
47382;DHT22;33128;51.580;5.170;2023-12-04T14:53:40;11.40;99.90
47382;DHT22;33128;51.580;5.170;2023-12-04T14:56:11;11.40;99.90
47382;DHT22;33128;51.580;5.170;2023-12-04T14:58:56;11.30;99.90
47382;DHT22;33128;51.580;5.170;2023-12-04T15:01:47;11.30;99.90
47382;DHT22;33128;51.580;5.170;2023-12-04T15:04:33;11.20;99.90
47382;DHT22;33128;51.580;5.170;2023-12-04T15:07:07;11.30;99.90
47382;DHT22;33128;51.580;5.170;2023-12-04T15:09:38;11.30;99.90
47382;DHT22;33128;51.580;5.170;2023-12-04T15:12:10;11.30;99.90
47382;DHT22;33128;51.580;5.170;2023-12-04T15:14:48;11.30;99.90
47382;DHT22;33128;51.580;5.170;2023-12-04T15:17:26;11.30;99.90
47382;DHT22;33128;51.580;5.170;2023-12-04T15:20:09;11.20;99.90
47382;DHT22;33128;51.580;5.170;2023-12-04T15:22:35;11.20;99.90
47382;DHT22;33128;51.580;5.170;2023-12-04T15:25:02;11.20;99.90
47382;DHT22;33128;51.580;5.170;2023-12-04T15:27:28;11.20;99.90
47382;DHT22;33128;51.580;5.170;2023-12-04T15:29:54;11.30;99.90
47382;DHT22;33128;51.580;5.170;2023-12-04T15:32:19;11.20;99.90
47382;DHT22;33128;51.580;5.170;2023-12-04T15:34:45;11.10;99.90
47382;DHT22;33128;51.580;5.170;2023-12-04T15:37:10;11.10;99.90
47382;DHT22;33128;51.580;5.170;2023-12-04T15:39:36;11.10;99.90
47382;DHT22;33128;51.580;5.170;2023-12-04T15:42:01;11.10;99.90
47382;DHT22;33128;51.580;5.170;2023-12-04T15:44:31;11.10;99.90
47382;DHT22;33128;51.580;5.170;2023-12-04T15:46:56;11.10;99.90
47382;DHT22;33128;51.580;5.170;2023-12-04T15:49:22;11.10;99.90
47382;DHT22;33128;51.580;5.170;2023-12-04T15:51:48;11.20;99.90